sensor_id;sensor_type;location;lat;lon;timestamp;temperature;humidity
56162;DHT22;42045;52.986;6.014;2022-09-12T00:02:25;13.30;99.90
56162;DHT22;42045;52.986;6.014;2022-09-12T00:04:51;13.30;99.90
56162;DHT22;42045;52.986;6.014;2022-09-12T00:07:16;13.30;99.90
56162;DHT22;42045;52.986;6.014;2022-09-12T00:09:42;13.30;99.90
56162;DHT22;42045;52.986;6.014;2022-09-12T00:12:13;13.30;99.90
56162;DHT22;42045;52.986;6.014;2022-09-12T00:14:38;13.30;99.90
56162;DHT22;42045;52.986;6.014;2022-09-12T00:17:12;13.30;99.90
56162;DHT22;42045;52.986;6.014;2022-09-12T00:19:38;13.40;99.90
56162;DHT22;42045;52.986;6.014;2022-09-12T00:22:03;13.40;99.90
56162;DHT22;42045;52.986;6.014;2022-09-12T00:24:29;13.40;99.90
56162;DHT22;42045;52.986;6.014;2022-09-12T00:26:55;13.40;99.90
56162;DHT22;42045;52.986;6.014;2022-09-12T00:29:21;13.40;99.90
56162;DHT22;42045;52.986;6.014;2022-09-12T00:31:47;13.50;99.90
56162;DHT22;42045;52.986;6.014;2022-09-12T00:34:13;13.40;99.90
56162;DHT22;42045;52.986;6.014;2022-09-12T00:36:39;13.40;99.90
56162;DHT22;42045;52.986;6.014;2022-09-12T00:39:06;13.40;99.90
56162;DHT22;42045;52.986;6.014;2022-09-12T00:41:40;13.30;99.90
56162;DHT22;42045;52.986;6.014;2022-09-12T00:47:03;13.20;99.90
56162;DHT22;42045;52.986;6.014;2022-09-12T00:49:47;13.20;99.90
56162;DHT22;42045;52.986;6.014;2022-09-12T00:52:28;13.20;99.90
56162;DHT22;42045;52.986;6.014;2022-09-12T00:55:11;13.10;99.90
56162;DHT22;42045;52.986;6.014;2022-09-12T00:57:44;13.10;99.90
56162;DHT22;42045;52.986;6.014;2022-09-12T01:00:19;13.10;99.90
56162;DHT22;42045;52.986;6.014;2022-09-12T01:03:00;13.10;99.90
56162;DHT22;42045;52.986;6.014;2022-09-12T01:05:27;13.10;99.90
56162;DHT22;42045;52.986;6.014;2022-09-12T01:07:55;13.10;99.90
56162;DHT22;42045;52.986;6.014;2022-09-12T01:10:21;13.10;99.90
56162;DHT22;42045;52.986;6.014;2022-09-12T01:12:48;13.10;99.90
56162;DHT22;42045;52.986;6.014;2022-09-12T01:15:14;13.10;99.90
56162;DHT22;42045;52.986;6.014;2022-09-12T01:20:58;13.10;99.90
56162;DHT22;42045;52.986;6.014;2022-09-12T01:26:46;13.10;99.90
56162;DHT22;42045;52.986;6.014;2022-09-12T01:29:28;13.10;99.90
56162;DHT22;42045;52.986;6.014;2022-09-12T01:43:30;12.90;99.90
56162;DHT22;42045;52.986;6.014;2022-09-12T01:48:39;12.90;99.90
56162;DHT22;42045;52.986;6.014;2022-09-12T01:51:20;12.80;99.90
56162;DHT22;42045;52.986;6.014;2022-09-12T01:53:54;12.80;99.90
56162;DHT22;42045;52.986;6.014;2022-09-12T01:56:27;12.80;99.90
56162;DHT22;42045;52.986;6.014;2022-09-12T01:59:02;12.80;99.90
56162;DHT22;42045;52.986;6.014;2022-09-12T02:01:44;12.80;99.90
56162;DHT22;42045;52.986;6.014;2022-09-12T02:04:15;12.80;99.90
56162;DHT22;42045;52.986;6.014;2022-09-12T02:09:36;12.80;99.90
56162;DHT22;42045;52.986;6.014;2022-09-12T02:12:04;12.80;99.90
56162;DHT22;42045;52.986;6.014;2022-09-12T02:14:36;12.80;99.90
56162;DHT22;42045;52.986;6.014;2022-09-12T02:17:10;12.80;99.90
56162;DHT22;42045;52.986;6.014;2022-09-12T02:19:42;12.80;99.90
56162;DHT22;42045;52.986;6.014;2022-09-12T02:22:12;12.80;99.90
56162;DHT22;42045;52.986;6.014;2022-09-12T02:24:42;12.80;99.90
56162;DHT22;42045;52.986;6.014;2022-09-12T02:27:13;12.80;99.90
56162;DHT22;42045;52.986;6.014;2022-09-12T02:29:41;12.80;99.90
56162;DHT22;42045;52.986;6.014;2022-09-12T02:40:14;12.90;99.90
56162;DHT22;42045;52.986;6.014;2022-09-12T02:42:45;12.90;99.90
56162;DHT22;42045;52.986;6.014;2022-09-12T02:45:12;12.90;99.90
56162;DHT22;42045;52.986;6.014;2022-09-12T02:47:48;12.80;99.90
56162;DHT22;42045;52.986;6.014;2022-09-12T02:50:15;12.90;99.90
56162;DHT22;42045;52.986;6.014;2022-09-12T02:52:41;12.90;99.90
56162;DHT22;42045;52.986;6.014;2022-09-12T02:55:08;12.90;99.90
56162;DHT22;42045;52.986;6.014;2022-09-12T02:57:38;12.90;99.90
56162;DHT22;42045;52.986;6.014;2022-09-12T03:00:05;12.90;99.90
56162;DHT22;42045;52.986;6.014;2022-09-12T03:08:41;12.90;99.90
56162;DHT22;42045;52.986;6.014;2022-09-12T03:14:15;13.00;99.90
56162;DHT22;42045;52.986;6.014;2022-09-12T03:16:52;12.90;99.90
56162;DHT22;42045;52.986;6.014;2022-09-12T03:19:32;13.00;99.90
56162;DHT22;42045;52.986;6.014;2022-09-12T03:22:14;12.90;99.90
56162;DHT22;42045;52.986;6.014;2022-09-12T03:25:02;12.90;99.90
56162;DHT22;42045;52.986;6.014;2022-09-12T03:27:34;12.90;99.90
56162;DHT22;42045;52.986;6.014;2022-09-12T03:30:03;12.80;99.90
56162;DHT22;42045;52.986;6.014;2022-09-12T03:32:43;12.80;99.90
56162;DHT22;42045;52.986;6.014;2022-09-12T03:35:11;12.90;99.90
56162;DHT22;42045;52.986;6.014;2022-09-12T03:37:37;12.90;99.90
56162;DHT22;42045;52.986;6.014;2022-09-12T03:40:04;12.90;99.90
56162;DHT22;42045;52.986;6.014;2022-09-12T03:42:30;12.90;99.90
56162;DHT22;42045;52.986;6.014;2022-09-12T03:44:56;12.90;99.90
56162;DHT22;42045;52.986;6.014;2022-09-12T03:47:22;12.80;99.90
56162;DHT22;42045;52.986;6.014;2022-09-12T03:49:48;12.80;99.90
56162;DHT22;42045;52.986;6.014;2022-09-12T03:52:17;12.90;99.90
56162;DHT22;42045;52.986;6.014;2022-09-12T03:54:42;12.80;99.90
56162;DHT22;42045;52.986;6.014;2022-09-12T03:57:08;12.80;99.90
56162;DHT22;42045;52.986;6.014;2022-09-12T03:59:34;12.80;99.90
56162;DHT22;42045;52.986;6.014;2022-09-12T04:02:00;12.80;99.90
56162;DHT22;42045;52.986;6.014;2022-09-12T04:04:26;12.80;99.90
56162;DHT22;42045;52.986;6.014;2022-09-12T04:06:52;12.80;99.90
56162;DHT22;42045;52.986;6.014;2022-09-12T04:09:17;12.80;99.90
56162;DHT22;42045;52.986;6.014;2022-09-12T04:11:43;12.80;99.90
56162;DHT22;42045;52.986;6.014;2022-09-12T04:14:09;12.90;99.90
56162;DHT22;42045;52.986;6.014;2022-09-12T04:16:34;12.90;99.90
56162;DHT22;42045;52.986;6.014;2022-09-12T04:19:00;12.90;99.90
56162;DHT22;42045;52.986;6.014;2022-09-12T04:21:26;13.00;99.90
56162;DHT22;42045;52.986;6.014;2022-09-12T04:23:52;13.00;99.90
56162;DHT22;42045;52.986;6.014;2022-09-12T04:26:18;13.00;99.90
56162;DHT22;42045;52.986;6.014;2022-09-12T04:28:45;13.10;99.90
56162;DHT22;42045;52.986;6.014;2022-09-12T04:31:16;13.10;99.90
56162;DHT22;42045;52.986;6.014;2022-09-12T04:33:45;13.20;99.90
56162;DHT22;42045;52.986;6.014;2022-09-12T04:36:14;13.20;99.90
56162;DHT22;42045;52.986;6.014;2022-09-12T04:38:45;13.20;99.90
56162;DHT22;42045;52.986;6.014;2022-09-12T04:41:17;13.20;99.90
56162;DHT22;42045;52.986;6.014;2022-09-12T04:43:44;13.20;99.90
56162;DHT22;42045;52.986;6.014;2022-09-12T04:46:15;13.20;99.90
56162;DHT22;42045;52.986;6.014;2022-09-12T04:48:42;13.30;99.90
56162;DHT22;42045;52.986;6.014;2022-09-12T04:51:18;13.30;99.90
56162;DHT22;42045;52.986;6.014;2022-09-12T04:53:51;13.20;99.90
56162;DHT22;42045;52.986;6.014;2022-09-12T04:56:18;13.30;99.90
56162;DHT22;42045;52.986;6.014;2022-09-12T04:58:44;13.30;99.90
56162;DHT22;42045;52.986;6.014;2022-09-12T05:01:12;13.40;99.90
56162;DHT22;42045;52.986;6.014;2022-09-12T05:03:40;13.40;99.90
56162;DHT22;42045;52.986;6.014;2022-09-12T05:06:10;13.50;99.90
56162;DHT22;42045;52.986;6.014;2022-09-12T05:08:36;13.50;99.90
56162;DHT22;42045;52.986;6.014;2022-09-12T05:11:07;13.60;99.90
56162;DHT22;42045;52.986;6.014;2022-09-12T05:13:33;13.60;99.90
56162;DHT22;42045;52.986;6.014;2022-09-12T05:16:00;13.70;99.90
56162;DHT22;42045;52.986;6.014;2022-09-12T05:18:27;13.70;99.90
56162;DHT22;42045;52.986;6.014;2022-09-12T05:20:54;13.70;99.90
56162;DHT22;42045;52.986;6.014;2022-09-12T05:23:20;13.80;99.90
56162;DHT22;42045;52.986;6.014;2022-09-12T05:25:54;13.80;99.90
56162;DHT22;42045;52.986;6.014;2022-09-12T05:28:21;13.80;99.90
56162;DHT22;42045;52.986;6.014;2022-09-12T05:30:47;13.90;99.90
56162;DHT22;42045;52.986;6.014;2022-09-12T05:33:13;14.00;99.90
56162;DHT22;42045;52.986;6.014;2022-09-12T05:35:39;14.00;99.90
56162;DHT22;42045;52.986;6.014;2022-09-12T05:38:11;14.00;99.90
56162;DHT22;42045;52.986;6.014;2022-09-12T05:40:36;14.00;99.90
56162;DHT22;42045;52.986;6.014;2022-09-12T05:43:02;14.00;99.90
56162;DHT22;42045;52.986;6.014;2022-09-12T05:45:29;14.00;99.90
56162;DHT22;42045;52.986;6.014;2022-09-12T05:47:54;14.00;99.90
56162;DHT22;42045;52.986;6.014;2022-09-12T05:50:20;14.00;99.90
56162;DHT22;42045;52.986;6.014;2022-09-12T05:52:46;14.10;99.90
56162;DHT22;42045;52.986;6.014;2022-09-12T05:55:11;14.10;99.90
56162;DHT22;42045;52.986;6.014;2022-09-12T05:57:37;14.10;99.90
56162;DHT22;42045;52.986;6.014;2022-09-12T06:00:04;14.20;99.90
56162;DHT22;42045;52.986;6.014;2022-09-12T06:02:30;14.20;99.90
56162;DHT22;42045;52.986;6.014;2022-09-12T06:04:56;14.20;99.90
56162;DHT22;42045;52.986;6.014;2022-09-12T06:07:22;14.20;99.90
56162;DHT22;42045;52.986;6.014;2022-09-12T06:09:47;14.30;99.90
56162;DHT22;42045;52.986;6.014;2022-09-12T06:12:13;14.30;99.90
56162;DHT22;42045;52.986;6.014;2022-09-12T06:14:39;14.40;99.90
56162;DHT22;42045;52.986;6.014;2022-09-12T06:17:05;14.40;99.90
56162;DHT22;42045;52.986;6.014;2022-09-12T06:19:30;14.40;99.90
56162;DHT22;42045;52.986;6.014;2022-09-12T06:21:56;14.40;99.90
56162;DHT22;42045;52.986;6.014;2022-09-12T06:24:22;14.50;99.90
56162;DHT22;42045;52.986;6.014;2022-09-12T06:26:50;14.50;99.90
56162;DHT22;42045;52.986;6.014;2022-09-12T06:29:17;14.50;99.90
56162;DHT22;42045;52.986;6.014;2022-09-12T06:31:43;14.60;99.90
56162;DHT22;42045;52.986;6.014;2022-09-12T06:34:12;14.60;99.90
56162;DHT22;42045;52.986;6.014;2022-09-12T06:36:41;14.70;99.90
56162;DHT22;42045;52.986;6.014;2022-09-12T06:39:10;14.70;99.90
56162;DHT22;42045;52.986;6.014;2022-09-12T06:41:36;14.80;99.90
56162;DHT22;42045;52.986;6.014;2022-09-12T06:44:02;14.80;99.90
56162;DHT22;42045;52.986;6.014;2022-09-12T06:46:29;14.90;99.90
56162;DHT22;42045;52.986;6.014;2022-09-12T06:48:56;15.00;99.90
56162;DHT22;42045;52.986;6.014;2022-09-12T06:51:23;15.00;99.90
56162;DHT22;42045;52.986;6.014;2022-09-12T06:53:56;15.10;99.90
56162;DHT22;42045;52.986;6.014;2022-09-12T06:56:24;15.10;99.90
56162;DHT22;42045;52.986;6.014;2022-09-12T06:58:51;15.20;99.90
56162;DHT22;42045;52.986;6.014;2022-09-12T07:01:20;15.10;99.90
56162;DHT22;42045;52.986;6.014;2022-09-12T07:03:52;15.20;99.90
56162;DHT22;42045;52.986;6.014;2022-09-12T07:06:21;15.20;99.90
56162;DHT22;42045;52.986;6.014;2022-09-12T07:08:48;15.20;99.90
56162;DHT22;42045;52.986;6.014;2022-09-12T07:13:44;15.30;99.90
56162;DHT22;42045;52.986;6.014;2022-09-12T07:16:10;15.30;99.90
56162;DHT22;42045;52.986;6.014;2022-09-12T07:18:38;15.30;99.90
56162;DHT22;42045;52.986;6.014;2022-09-12T07:21:06;15.30;99.90
56162;DHT22;42045;52.986;6.014;2022-09-12T07:23:32;15.40;99.90
56162;DHT22;42045;52.986;6.014;2022-09-12T07:25:59;15.50;99.90
56162;DHT22;42045;52.986;6.014;2022-09-12T07:28:32;15.50;99.90
56162;DHT22;42045;52.986;6.014;2022-09-12T07:31:05;15.50;99.90
56162;DHT22;42045;52.986;6.014;2022-09-12T07:33:31;15.60;99.90
56162;DHT22;42045;52.986;6.014;2022-09-12T07:36:05;15.70;99.90
56162;DHT22;42045;52.986;6.014;2022-09-12T07:38:31;15.70;99.90
56162;DHT22;42045;52.986;6.014;2022-09-12T07:40:57;15.80;99.90
56162;DHT22;42045;52.986;6.014;2022-09-12T07:43:23;15.80;99.90
56162;DHT22;42045;52.986;6.014;2022-09-12T07:45:58;15.90;99.90
56162;DHT22;42045;52.986;6.014;2022-09-12T07:48:24;16.00;99.90
56162;DHT22;42045;52.986;6.014;2022-09-12T07:51:00;16.10;99.90
56162;DHT22;42045;52.986;6.014;2022-09-12T07:53:30;16.20;99.90
56162;DHT22;42045;52.986;6.014;2022-09-12T07:55:56;16.40;99.90
56162;DHT22;42045;52.986;6.014;2022-09-12T07:58:23;16.40;99.90
56162;DHT22;42045;52.986;6.014;2022-09-12T08:00:49;16.50;99.90
56162;DHT22;42045;52.986;6.014;2022-09-12T08:03:15;16.70;99.90
56162;DHT22;42045;52.986;6.014;2022-09-12T08:05:42;16.90;99.90
56162;DHT22;42045;52.986;6.014;2022-09-12T08:08:07;17.00;99.90
56162;DHT22;42045;52.986;6.014;2022-09-12T08:10:34;17.10;99.90
56162;DHT22;42045;52.986;6.014;2022-09-12T08:13:00;17.30;99.90
56162;DHT22;42045;52.986;6.014;2022-09-12T08:15:25;17.30;99.90
56162;DHT22;42045;52.986;6.014;2022-09-12T08:17:51;17.50;99.90
56162;DHT22;42045;52.986;6.014;2022-09-12T08:20:17;17.40;99.90
56162;DHT22;42045;52.986;6.014;2022-09-12T08:22:43;17.60;99.90
56162;DHT22;42045;52.986;6.014;2022-09-12T08:25:09;17.60;99.90
56162;DHT22;42045;52.986;6.014;2022-09-12T08:27:36;17.80;99.90
56162;DHT22;42045;52.986;6.014;2022-09-12T08:30:03;17.90;99.90
56162;DHT22;42045;52.986;6.014;2022-09-12T08:32:29;18.10;99.90
56162;DHT22;42045;52.986;6.014;2022-09-12T08:34:55;18.20;99.90
56162;DHT22;42045;52.986;6.014;2022-09-12T08:37:21;18.30;99.90
56162;DHT22;42045;52.986;6.014;2022-09-12T08:39:47;18.30;99.90
56162;DHT22;42045;52.986;6.014;2022-09-12T08:42:39;18.40;99.90
56162;DHT22;42045;52.986;6.014;2022-09-12T08:45:17;18.60;99.90
56162;DHT22;42045;52.986;6.014;2022-09-12T08:47:45;18.70;99.90
56162;DHT22;42045;52.986;6.014;2022-09-12T08:50:18;18.80;99.90
56162;DHT22;42045;52.986;6.014;2022-09-12T08:55:39;19.00;99.90
56162;DHT22;42045;52.986;6.014;2022-09-12T08:58:24;19.10;99.90
56162;DHT22;42045;52.986;6.014;2022-09-12T09:07:03;19.60;99.90
56162;DHT22;42045;52.986;6.014;2022-09-12T09:17:49;19.90;99.90
56162;DHT22;42045;52.986;6.014;2022-09-12T09:23:33;20.10;99.90
56162;DHT22;42045;52.986;6.014;2022-09-12T09:26:32;20.20;99.90
56162;DHT22;42045;52.986;6.014;2022-09-12T09:29:06;20.40;99.90
56162;DHT22;42045;52.986;6.014;2022-09-12T09:31:37;20.40;99.90
56162;DHT22;42045;52.986;6.014;2022-09-12T09:34:17;20.20;99.90
56162;DHT22;42045;52.986;6.014;2022-09-12T09:42:17;20.30;99.90
56162;DHT22;42045;52.986;6.014;2022-09-12T09:44:45;20.40;99.90
56162;DHT22;42045;52.986;6.014;2022-09-12T09:47:12;20.60;99.90
56162;DHT22;42045;52.986;6.014;2022-09-12T09:49:39;20.70;99.90
56162;DHT22;42045;52.986;6.014;2022-09-12T09:52:07;21.00;99.90
56162;DHT22;42045;52.986;6.014;2022-09-12T09:55:00;21.20;99.90
56162;DHT22;42045;52.986;6.014;2022-09-12T09:57:39;21.40;99.90
56162;DHT22;42045;52.986;6.014;2022-09-12T10:00:29;21.50;99.90
56162;DHT22;42045;52.986;6.014;2022-09-12T10:03:32;21.50;99.90
56162;DHT22;42045;52.986;6.014;2022-09-12T10:06:05;21.50;99.90
56162;DHT22;42045;52.986;6.014;2022-09-12T10:08:35;21.30;99.90
56162;DHT22;42045;52.986;6.014;2022-09-12T10:11:25;21.30;99.90
56162;DHT22;42045;52.986;6.014;2022-09-12T10:13:56;21.50;99.90
56162;DHT22;42045;52.986;6.014;2022-09-12T10:16:34;21.50;99.90
56162;DHT22;42045;52.986;6.014;2022-09-12T10:19:20;21.60;99.90
56162;DHT22;42045;52.986;6.014;2022-09-12T10:21:59;21.60;99.90
56162;DHT22;42045;52.986;6.014;2022-09-12T10:24:29;21.70;99.90
56162;DHT22;42045;52.986;6.014;2022-09-12T10:27:13;21.80;99.90
56162;DHT22;42045;52.986;6.014;2022-09-12T10:29:40;22.00;99.90
56162;DHT22;42045;52.986;6.014;2022-09-12T10:32:12;21.90;99.90
56162;DHT22;42045;52.986;6.014;2022-09-12T10:34:53;21.90;99.90
56162;DHT22;42045;52.986;6.014;2022-09-12T10:37:25;21.90;99.90
56162;DHT22;42045;52.986;6.014;2022-09-12T10:39:55;22.00;99.90
56162;DHT22;42045;52.986;6.014;2022-09-12T10:42:50;22.10;99.90
56162;DHT22;42045;52.986;6.014;2022-09-12T10:45:38;22.00;99.90
56162;DHT22;42045;52.986;6.014;2022-09-12T10:48:30;22.10;99.90
56162;DHT22;42045;52.986;6.014;2022-09-12T10:50:57;21.90;99.90
56162;DHT22;42045;52.986;6.014;2022-09-12T10:53:28;22.00;99.90
56162;DHT22;42045;52.986;6.014;2022-09-12T10:59:07;22.20;99.90
56162;DHT22;42045;52.986;6.014;2022-09-12T11:01:43;22.30;99.90
56162;DHT22;42045;52.986;6.014;2022-09-12T11:12:44;22.40;99.90
56162;DHT22;42045;52.986;6.014;2022-09-12T11:23:28;22.40;99.90
56162;DHT22;42045;52.986;6.014;2022-09-12T11:26:40;22.30;99.90
56162;DHT22;42045;52.986;6.014;2022-09-12T11:37:20;23.00;99.90
56162;DHT22;42045;52.986;6.014;2022-09-12T11:39:53;23.10;99.90
56162;DHT22;42045;52.986;6.014;2022-09-12T11:42:28;23.30;99.90
56162;DHT22;42045;52.986;6.014;2022-09-12T11:45:16;23.40;99.90
56162;DHT22;42045;52.986;6.014;2022-09-12T11:47:47;23.60;99.90
56162;DHT22;42045;52.986;6.014;2022-09-12T11:50:37;23.50;99.90
56162;DHT22;42045;52.986;6.014;2022-09-12T11:53:14;23.50;99.90
56162;DHT22;42045;52.986;6.014;2022-09-12T11:55:56;23.40;99.90
56162;DHT22;42045;52.986;6.014;2022-09-12T11:58:26;23.50;99.90
56162;DHT22;42045;52.986;6.014;2022-09-12T12:01:31;23.50;99.90
56162;DHT22;42045;52.986;6.014;2022-09-12T12:03:49;23.40;99.90
56162;DHT22;42045;52.986;6.014;2022-09-12T12:06:29;23.50;99.90
56162;DHT22;42045;52.986;6.014;2022-09-12T12:08:56;23.40;99.90
56162;DHT22;42045;52.986;6.014;2022-09-12T12:11:40;23.30;99.90
56162;DHT22;42045;52.986;6.014;2022-09-12T12:16:57;23.40;99.90
56162;DHT22;42045;52.986;6.014;2022-09-12T12:19:35;23.50;99.90
56162;DHT22;42045;52.986;6.014;2022-09-12T12:22:22;23.50;99.90
56162;DHT22;42045;52.986;6.014;2022-09-12T12:24:58;23.70;99.90
56162;DHT22;42045;52.986;6.014;2022-09-12T12:27:52;23.70;99.90
56162;DHT22;42045;52.986;6.014;2022-09-12T12:38:32;23.50;99.90
56162;DHT22;42045;52.986;6.014;2022-09-12T12:43:44;23.70;99.90
56162;DHT22;42045;52.986;6.014;2022-09-12T12:46:12;23.80;99.90
56162;DHT22;42045;52.986;6.014;2022-09-12T12:53:56;23.70;99.90
56162;DHT22;42045;52.986;6.014;2022-09-12T12:56:43;23.60;99.90
56162;DHT22;42045;52.986;6.014;2022-09-12T12:59:18;23.50;99.90
56162;DHT22;42045;52.986;6.014;2022-09-12T13:01:49;23.60;99.90
56162;DHT22;42045;52.986;6.014;2022-09-12T13:04:19;23.70;99.90
56162;DHT22;42045;52.986;6.014;2022-09-12T13:07:04;23.80;99.90
56162;DHT22;42045;52.986;6.014;2022-09-12T13:09:45;24.00;99.90
56162;DHT22;42045;52.986;6.014;2022-09-12T13:12:20;24.10;99.90
56162;DHT22;42045;52.986;6.014;2022-09-12T13:14:55;24.10;99.90
56162;DHT22;42045;52.986;6.014;2022-09-12T13:17:42;24.00;99.90
56162;DHT22;42045;52.986;6.014;2022-09-12T13:22:46;23.90;99.90
56162;DHT22;42045;52.986;6.014;2022-09-12T13:28:16;23.90;99.90
56162;DHT22;42045;52.986;6.014;2022-09-12T13:33:41;23.90;99.90
56162;DHT22;42045;52.986;6.014;2022-09-12T13:39:27;23.60;99.90
56162;DHT22;42045;52.986;6.014;2022-09-12T13:44:42;23.40;99.90
56162;DHT22;42045;52.986;6.014;2022-09-12T13:47:18;23.40;99.90
56162;DHT22;42045;52.986;6.014;2022-09-12T13:49:48;23.50;99.90
56162;DHT22;42045;52.986;6.014;2022-09-12T13:52:23;23.60;99.90
56162;DHT22;42045;52.986;6.014;2022-09-12T13:54:53;23.60;99.90
56162;DHT22;42045;52.986;6.014;2022-09-12T13:57:38;23.60;99.90
56162;DHT22;42045;52.986;6.014;2022-09-12T14:00:16;23.80;99.90
56162;DHT22;42045;52.986;6.014;2022-09-12T14:02:46;23.80;99.90
56162;DHT22;42045;52.986;6.014;2022-09-12T14:05:20;23.90;99.90
56162;DHT22;42045;52.986;6.014;2022-09-12T14:07:57;23.90;99.90
56162;DHT22;42045;52.986;6.014;2022-09-12T14:10:33;23.90;99.90
56162;DHT22;42045;52.986;6.014;2022-09-12T14:13:03;24.00;99.90
56162;DHT22;42045;52.986;6.014;2022-09-12T14:15:36;23.90;99.90
56162;DHT22;42045;52.986;6.014;2022-09-12T14:18:03;23.70;99.90
56162;DHT22;42045;52.986;6.014;2022-09-12T14:20:34;23.50;99.90
56162;DHT22;42045;52.986;6.014;2022-09-12T14:23:19;23.40;99.90
56162;DHT22;42045;52.986;6.014;2022-09-12T14:25:46;23.40;99.90
56162;DHT22;42045;52.986;6.014;2022-09-12T14:28:16;23.50;99.90
56162;DHT22;42045;52.986;6.014;2022-09-12T14:31:05;23.70;99.90
56162;DHT22;42045;52.986;6.014;2022-09-12T14:34:06;23.70;99.90
56162;DHT22;42045;52.986;6.014;2022-09-12T14:37:08;23.70;99.90
56162;DHT22;42045;52.986;6.014;2022-09-12T14:39:41;23.70;99.90
56162;DHT22;42045;52.986;6.014;2022-09-12T14:42:17;23.60;99.90
56162;DHT22;42045;52.986;6.014;2022-09-12T14:44:54;23.60;99.90
56162;DHT22;42045;52.986;6.014;2022-09-12T14:47:27;23.60;99.90
56162;DHT22;42045;52.986;6.014;2022-09-12T14:49:55;23.60;99.90
56162;DHT22;42045;52.986;6.014;2022-09-12T14:52:32;23.60;99.90
56162;DHT22;42045;52.986;6.014;2022-09-12T14:55:27;23.60;99.90
56162;DHT22;42045;52.986;6.014;2022-09-12T15:06:29;23.30;99.90
56162;DHT22;42045;52.986;6.014;2022-09-12T15:09:02;23.20;99.90
56162;DHT22;42045;52.986;6.014;2022-09-12T15:11:29;23.10;99.90
56162;DHT22;42045;52.986;6.014;2022-09-12T15:13:55;23.10;99.90
56162;DHT22;42045;52.986;6.014;2022-09-12T15:16:21;23.00;99.90
56162;DHT22;42045;52.986;6.014;2022-09-12T15:18:47;23.00;99.90
56162;DHT22;42045;52.986;6.014;2022-09-12T15:21:16;23.10;99.90
56162;DHT22;42045;52.986;6.014;2022-09-12T15:23:43;23.10;99.90
56162;DHT22;42045;52.986;6.014;2022-09-12T15:26:16;23.00;99.90
56162;DHT22;42045;52.986;6.014;2022-09-12T15:28:43;23.00;99.90
56162;DHT22;42045;52.986;6.014;2022-09-12T15:31:14;23.00;99.90
56162;DHT22;42045;52.986;6.014;2022-09-12T15:33:44;22.90;99.90
56162;DHT22;42045;52.986;6.014;2022-09-12T15:36:16;22.90;99.90
56162;DHT22;42045;52.986;6.014;2022-09-12T15:38:44;22.90;99.90
56162;DHT22;42045;52.986;6.014;2022-09-12T15:41:22;23.00;99.90
56162;DHT22;42045;52.986;6.014;2022-09-12T15:43:48;23.00;99.90
56162;DHT22;42045;52.986;6.014;2022-09-12T15:46:16;22.90;99.90
56162;DHT22;42045;52.986;6.014;2022-09-12T15:48:43;22.90;99.90
56162;DHT22;42045;52.986;6.014;2022-09-12T15:51:19;22.80;99.90
56162;DHT22;42045;52.986;6.014;2022-09-12T15:53:49;22.70;99.90
56162;DHT22;42045;52.986;6.014;2022-09-12T15:56:16;22.70;99.90
56162;DHT22;42045;52.986;6.014;2022-09-12T15:58:43;22.60;99.90
56162;DHT22;42045;52.986;6.014;2022-09-12T16:01:13;22.60;99.90
56162;DHT22;42045;52.986;6.014;2022-09-12T16:03:39;22.50;99.90
56162;DHT22;42045;52.986;6.014;2022-09-12T16:06:06;22.40;99.90
56162;DHT22;42045;52.986;6.014;2022-09-12T16:08:34;22.40;99.90
56162;DHT22;42045;52.986;6.014;2022-09-12T16:11:15;22.40;99.90
56162;DHT22;42045;52.986;6.014;2022-09-12T16:13:43;22.40;99.90
56162;DHT22;42045;52.986;6.014;2022-09-12T16:16:10;22.30;99.90
56162;DHT22;42045;52.986;6.014;2022-09-12T16:18:38;22.30;99.90
56162;DHT22;42045;52.986;6.014;2022-09-12T16:21:04;22.30;99.90
56162;DHT22;42045;52.986;6.014;2022-09-12T16:23:30;22.30;99.90
56162;DHT22;42045;52.986;6.014;2022-09-12T16:26:01;22.20;99.90
56162;DHT22;42045;52.986;6.014;2022-09-12T16:28:30;22.10;99.90
56162;DHT22;42045;52.986;6.014;2022-09-12T16:31:02;22.00;99.90
56162;DHT22;42045;52.986;6.014;2022-09-12T16:33:29;22.00;99.90
56162;DHT22;42045;52.986;6.014;2022-09-12T16:36:07;21.90;99.90
56162;DHT22;42045;52.986;6.014;2022-09-12T16:38:34;21.90;99.90
56162;DHT22;42045;52.986;6.014;2022-09-12T16:41:05;21.80;99.90
56162;DHT22;42045;52.986;6.014;2022-09-12T16:43:33;21.80;99.90
56162;DHT22;42045;52.986;6.014;2022-09-12T16:46:13;21.80;99.90
56162;DHT22;42045;52.986;6.014;2022-09-12T16:48:53;21.80;99.90
56162;DHT22;42045;52.986;6.014;2022-09-12T16:51:27;21.70;99.90
56162;DHT22;42045;52.986;6.014;2022-09-12T16:53:55;21.70;99.90
56162;DHT22;42045;52.986;6.014;2022-09-12T16:56:21;21.70;99.90
56162;DHT22;42045;52.986;6.014;2022-09-12T16:58:47;21.70;99.90
56162;DHT22;42045;52.986;6.014;2022-09-12T17:01:18;21.70;99.90
56162;DHT22;42045;52.986;6.014;2022-09-12T17:03:44;21.60;99.90
56162;DHT22;42045;52.986;6.014;2022-09-12T17:06:13;21.60;99.90
56162;DHT22;42045;52.986;6.014;2022-09-12T17:08:41;21.60;99.90
56162;DHT22;42045;52.986;6.014;2022-09-12T17:11:10;21.50;99.90
56162;DHT22;42045;52.986;6.014;2022-09-12T17:13:36;21.40;99.90
56162;DHT22;42045;52.986;6.014;2022-09-12T17:16:07;21.30;99.90
56162;DHT22;42045;52.986;6.014;2022-09-12T17:18:35;21.20;99.90
56162;DHT22;42045;52.986;6.014;2022-09-12T17:21:01;21.10;99.90
56162;DHT22;42045;52.986;6.014;2022-09-12T17:23:27;21.00;99.90
56162;DHT22;42045;52.986;6.014;2022-09-12T17:25:52;20.90;99.90
56162;DHT22;42045;52.986;6.014;2022-09-12T17:28:20;20.80;99.90
56162;DHT22;42045;52.986;6.014;2022-09-12T17:30:53;20.70;99.90
56162;DHT22;42045;52.986;6.014;2022-09-12T17:33:19;20.60;99.90
56162;DHT22;42045;52.986;6.014;2022-09-12T17:35:45;20.50;99.90
56162;DHT22;42045;52.986;6.014;2022-09-12T17:38:11;20.40;99.90
56162;DHT22;42045;52.986;6.014;2022-09-12T17:40:37;20.30;99.90
56162;DHT22;42045;52.986;6.014;2022-09-12T17:43:03;20.20;99.90
56162;DHT22;42045;52.986;6.014;2022-09-12T17:45:30;20.10;99.90
56162;DHT22;42045;52.986;6.014;2022-09-12T17:47:56;20.00;99.90
56162;DHT22;42045;52.986;6.014;2022-09-12T17:50:22;19.90;99.90
56162;DHT22;42045;52.986;6.014;2022-09-12T17:52:47;19.80;99.90
56162;DHT22;42045;52.986;6.014;2022-09-12T17:55:13;19.80;99.90
56162;DHT22;42045;52.986;6.014;2022-09-12T17:57:40;19.70;99.90
56162;DHT22;42045;52.986;6.014;2022-09-12T18:00:07;19.60;99.90
56162;DHT22;42045;52.986;6.014;2022-09-12T18:02:36;19.50;99.90
56162;DHT22;42045;52.986;6.014;2022-09-12T18:05:02;19.50;99.90
56162;DHT22;42045;52.986;6.014;2022-09-12T18:07:30;19.50;99.90
56162;DHT22;42045;52.986;6.014;2022-09-12T18:09:57;19.40;99.90
56162;DHT22;42045;52.986;6.014;2022-09-12T18:12:23;19.30;99.90
56162;DHT22;42045;52.986;6.014;2022-09-12T18:14:49;19.20;99.90
56162;DHT22;42045;52.986;6.014;2022-09-12T18:17:15;19.20;99.90